LDPL/PUY METAR and TAF weather

Enter ICAO airport designator
Station Type Date Time Source
LDPL METAR 2020/03/28 13:30 UTC NOAA

LDPL 281330Z 28009KT 240V310 CAVOK 16/04 Q1013 BECMG 27008KT


Station Type Date Time Source
LDPL Decoded METAR 2020/03/28 13:30 UTC NOAA

Pula Aerodrome, Croatia (LDPL) 45-54N 013-55E 63M
Mar 28, 2020 - 09:30 AM EDT / 2020.03.28 1330 UTC
Wind: from the W (280 degrees) at 10 MPH (9 KT) (direction variable):0
Visibility: greater than 7 mile(s):0
Temperature: 60 F (16 C)
Dew Point: 39 F (4 C)
Relative Humidity: 44%
Pressure (altimeter): 29.91 in. Hg (1013 hPa)
ob: LDPL 281330Z 28009KT 240V310 CAVOK 16/04 Q1013 BECMG 27008KT
cycle: 13

Station Type Date Time Source
LDPL TAF 2020/03/28 12:27 UTC NOAA

TAF LDPL 281125Z 2812/2912 09008KT CAVOK TX17/2813Z TN04/2905Z
BECMG 2813/2815 27008KT
BECMG 2817/2819 34005KT PROB30
TEMPO 2902/2906 4000 MIFG BR
BECMG 2910/2912 25006KT

Example: see airport list